Terminal Aerodrome Forecast
Issued by NWS Northern Indiana

Home | Current Version | Previous Version | Text Only | Print | Product List | Glossary On
Versions: 1 2 3 4 5 6 7 8 9 10 11 12 13 14 15
000
FTUS43 KIWX 201100
TAFFWA
TAF
KFWA 201126Z 2012/2112 21008KT P6SM VCSH OVC080
     FM201500 24012KT P6SM VCSH BKN040
     FM202100 29012KT P6SM BKN035
     FM210600 30007KT P6SM OVC025=

USA.gov is the U.S. government's official web portal to all federal, state and local government web resources and services.